createdAt,value
2017-09-06T00:02:22.844Z,12.70
2017-09-06T00:04:51.387Z,8.57
2017-09-06T00:07:19.855Z,9.37
2017-09-06T00:09:48.319Z,10.23
2017-09-06T00:12:16.754Z,7.97
2017-09-06T00:14:45.322Z,9.87
2017-09-06T00:17:13.748Z,9.90
2017-09-06T00:19:42.994Z,7.53
2017-09-06T00:22:13.041Z,15.93
2017-09-06T00:24:41.584Z,7.10
2017-09-06T00:27:10.068Z,16.60
2017-09-06T00:29:38.560Z,7.87
2017-09-06T00:32:06.993Z,8.10
2017-09-06T00:34:35.526Z,7.43
2017-09-06T00:37:03.956Z,7.43
2017-09-06T00:39:32.418Z,8.27
2017-09-06T00:42:00.969Z,10.13
2017-09-06T00:44:29.423Z,10.27
2017-09-06T00:46:57.924Z,14.87
2017-09-06T00:49:26.381Z,9.83
2017-09-06T00:51:54.897Z,7.80
2017-09-06T00:54:23.380Z,6.90
2017-09-06T00:56:51.854Z,7.57
2017-09-06T00:59:20.348Z,8.50
2017-09-06T01:01:48.772Z,8.90
2017-09-06T01:04:17.233Z,8.63
2017-09-06T01:06:45.688Z,6.80
2017-09-06T01:09:14.151Z,8.13
2017-09-06T01:11:42.581Z,9.60
2017-09-06T01:14:11.016Z,8.43
2017-09-06T01:16:39.499Z,6.83
2017-09-06T01:19:07.994Z,9.10
2017-09-06T01:21:36.478Z,9.20
2017-09-06T01:24:04.963Z,10.43
2017-09-06T01:26:33.424Z,8.50
2017-09-06T01:29:01.922Z,10.57
2017-09-06T01:31:30.388Z,7.03
2017-09-06T01:33:58.807Z,7.03
2017-09-06T01:36:27.364Z,17.20
2017-09-06T01:38:55.835Z,7.40
2017-09-06T01:41:24.333Z,7.27
2017-09-06T01:43:52.809Z,7.90
2017-09-06T01:46:21.293Z,7.57
2017-09-06T01:48:49.759Z,5.63
2017-09-06T01:51:18.243Z,8.60
2017-09-06T01:53:46.676Z,7.73
2017-09-06T01:56:15.115Z,5.83
2017-09-06T01:58:43.609Z,6.53
2017-09-06T02:01:12.081Z,7.37
2017-09-06T02:03:40.551Z,6.50
2017-09-06T02:06:09.045Z,18.80
2017-09-06T02:08:37.486Z,6.67
2017-09-06T02:11:06.013Z,6.70
2017-09-06T02:13:34.446Z,9.83
2017-09-06T02:16:02.900Z,6.47
2017-09-06T02:18:31.353Z,7.27
2017-09-06T02:20:59.844Z,6.47
2017-09-06T02:23:28.277Z,8.13
2017-09-06T02:25:56.787Z,6.20
2017-09-06T02:28:25.210Z,7.17
2017-09-06T02:30:53.743Z,5.60
2017-09-06T02:33:22.231Z,7.70
2017-09-06T02:35:50.683Z,6.70
2017-09-06T02:38:19.121Z,6.93
2017-09-06T02:40:47.683Z,12.20
2017-09-06T02:43:16.143Z,6.57
2017-09-06T02:45:44.656Z,6.40
2017-09-06T02:48:13.079Z,6.93
2017-09-06T02:50:41.533Z,5.67
2017-09-06T02:53:10.010Z,7.00
2017-09-06T02:55:38.471Z,10.00
2017-09-06T02:58:06.951Z,9.60
2017-09-06T03:00:35.404Z,6.20
2017-09-06T03:03:03.931Z,10.27
2017-09-06T03:05:32.388Z,6.57
2017-09-06T03:08:00.820Z,7.83
2017-09-06T03:10:29.368Z,5.90
2017-09-06T03:12:57.822Z,8.20
2017-09-06T03:15:26.333Z,9.83
2017-09-06T03:17:54.828Z,13.50
2017-09-06T03:20:23.296Z,7.00
2017-09-06T03:22:51.748Z,8.17
2017-09-06T03:25:20.369Z,6.87
2017-09-06T03:27:48.839Z,14.23
2017-09-06T03:30:17.336Z,10.47
2017-09-06T03:32:45.799Z,14.27
2017-09-06T03:35:14.288Z,7.77
2017-09-06T03:37:42.773Z,9.27
2017-09-06T03:40:11.264Z,10.87
2017-09-06T03:42:39.745Z,9.40
2017-09-06T03:45:08.181Z,11.43
2017-09-06T03:47:36.695Z,8.70
2017-09-06T03:50:05.176Z,8.50
2017-09-06T03:52:33.663Z,8.50
2017-09-06T03:55:02.140Z,14.80
2017-09-06T03:57:30.628Z,8.33
2017-09-06T03:59:59.069Z,14.33
2017-09-06T04:02:27.592Z,8.47
2017-09-06T04:04:56.083Z,16.40
2017-09-06T04:07:24.527Z,9.10
2017-09-06T04:09:53.032Z,8.20
2017-09-06T04:12:21.535Z,9.20
2017-09-06T04:14:49.995Z,9.70
2017-09-06T04:17:18.498Z,9.83
2017-09-06T04:19:46.975Z,18.37
2017-09-06T04:22:15.427Z,8.60
2017-09-06T04:24:43.926Z,11.47
2017-09-06T04:27:12.377Z,7.90
2017-09-06T04:29:40.817Z,8.87
2017-09-06T04:32:09.381Z,25.40
2017-09-06T04:34:37.826Z,7.80
2017-09-06T04:37:07.029Z,21.73
2017-09-06T04:39:35.535Z,8.27
2017-09-06T04:42:03.993Z,9.03
2017-09-06T04:44:32.613Z,11.20
2017-09-06T04:47:01.088Z,15.80
2017-09-06T04:49:29.574Z,7.83
2017-09-06T04:51:58.020Z,10.63
2017-09-06T04:54:26.532Z,19.80
2017-09-06T04:56:55.026Z,7.00
2017-09-06T04:59:23.460Z,10.33
2017-09-06T05:01:51.990Z,8.83
2017-09-06T05:04:20.425Z,20.97
2017-09-06T05:06:48.935Z,9.10
2017-09-06T05:09:17.435Z,9.70
2017-09-06T05:11:45.870Z,9.00
2017-09-06T05:14:14.383Z,17.33
2017-09-06T05:16:42.825Z,8.93
2017-09-06T05:19:11.364Z,9.13
2017-09-06T05:21:39.809Z,13.47
2017-09-06T05:24:08.311Z,36.77
2017-09-06T05:26:36.735Z,15.80
2017-09-06T05:29:05.188Z,11.67
2017-09-06T05:31:33.662Z,15.80
2017-09-06T05:34:02.103Z,9.50
2017-09-06T05:36:30.636Z,21.73
2017-09-06T05:38:59.096Z,17.93
2017-09-06T05:41:27.589Z,28.73
2017-09-06T05:43:56.026Z,19.07
2017-09-06T05:46:24.555Z,12.40
2017-09-06T05:48:53.018Z,11.27
2017-09-06T05:51:21.529Z,16.50
2017-09-06T05:53:49.984Z,10.67
2017-09-06T05:56:18.475Z,15.47
2017-09-06T05:58:46.924Z,25.50
2017-09-06T06:01:15.449Z,10.97
2017-09-06T06:03:43.899Z,17.73
2017-09-06T06:06:12.404Z,19.73
2017-09-06T06:08:40.887Z,15.43
2017-09-06T06:11:09.368Z,20.23
2017-09-06T06:13:37.863Z,16.93
2017-09-06T06:16:06.347Z,23.03
2017-09-06T06:18:34.799Z,30.40
2017-09-06T06:21:03.299Z,13.73
2017-09-06T06:23:31.781Z,20.07
2017-09-06T06:26:00.217Z,37.00
2017-09-06T06:28:28.743Z,20.07
2017-09-06T06:30:57.230Z,20.47
2017-09-06T06:33:25.719Z,39.17
2017-09-06T06:35:54.187Z,16.50
2017-09-06T06:38:22.639Z,25.23
2017-09-06T06:40:51.067Z,50.67
2017-09-06T06:43:19.531Z,13.93
2017-09-06T06:45:48.015Z,27.47
2017-09-06T06:48:16.499Z,14.30
2017-09-06T06:50:44.928Z,24.03
2017-09-06T06:53:13.469Z,17.53
2017-09-06T06:55:41.961Z,12.47
2017-09-06T06:58:10.424Z,46.17
2017-09-06T07:00:38.907Z,25.57
2017-09-06T07:03:07.374Z,22.57
2017-09-06T07:05:36.598Z,20.63
2017-09-06T07:08:05.076Z,22.63
2017-09-06T07:10:33.503Z,17.53
2017-09-06T07:13:02.031Z,15.80
2017-09-06T07:15:30.483Z,20.53
2017-09-06T07:17:58.996Z,16.63
2017-09-06T07:20:27.490Z,26.80
2017-09-06T07:22:55.960Z,29.23
2017-09-06T07:25:24.460Z,59.60
2017-09-06T07:27:52.913Z,14.97
2017-09-06T07:30:21.457Z,17.83
2017-09-06T07:32:49.996Z,17.63
2017-09-06T07:35:18.485Z,15.60
2017-09-06T07:37:46.933Z,29.63
2017-09-06T07:40:15.435Z,19.10
2017-09-06T07:42:43.937Z,15.03
2017-09-06T07:45:12.587Z,14.90
2017-09-06T07:47:41.088Z,23.90
2017-09-06T07:50:09.582Z,22.00
2017-09-06T07:52:38.019Z,33.90
2017-09-06T07:55:06.486Z,18.60
2017-09-06T07:57:34.931Z,27.63
2017-09-06T08:00:03.510Z,24.87
2017-09-06T08:02:31.993Z,21.23
2017-09-06T08:05:00.443Z,16.50
2017-09-06T08:07:28.880Z,15.97
2017-09-06T08:09:57.338Z,19.00
2017-09-06T08:12:25.825Z,19.63
2017-09-06T08:14:54.401Z,27.00
2017-09-06T08:17:22.871Z,17.70
2017-09-06T08:19:51.372Z,21.43
2017-09-06T08:22:19.803Z,15.03
2017-09-06T08:24:48.274Z,16.23
2017-09-06T08:27:16.799Z,17.70
2017-09-06T08:29:45.298Z,12.93
2017-09-06T08:32:13.739Z,28.20
2017-09-06T08:34:42.955Z,20.93
2017-09-06T08:37:11.392Z,12.43
2017-09-06T08:39:39.927Z,20.10
2017-09-06T08:42:08.355Z,22.20
2017-09-06T08:44:36.902Z,10.47
2017-09-06T08:47:05.336Z,12.50
2017-09-06T08:49:33.851Z,11.10
2017-09-06T08:52:02.341Z,8.53
2017-09-06T08:54:30.831Z,19.33
2017-09-06T08:56:59.260Z,13.53
2017-09-06T08:59:27.725Z,10.63
2017-09-06T09:01:56.157Z,12.23
2017-09-06T09:04:24.639Z,8.77
2017-09-06T09:06:53.133Z,12.10
2017-09-06T09:09:21.613Z,7.67
2017-09-06T09:11:50.106Z,8.80
2017-09-06T09:14:18.588Z,9.77
2017-09-06T09:16:47.044Z,11.20
2017-09-06T09:19:15.535Z,9.83
2017-09-06T09:21:44.019Z,11.10
2017-09-06T09:24:12.511Z,12.20
2017-09-06T09:26:40.998Z,15.60
2017-09-06T09:29:09.474Z,15.80
2017-09-06T09:31:37.961Z,18.40
2017-09-06T09:34:06.391Z,15.00
2017-09-06T09:36:34.853Z,14.63
2017-09-06T09:39:03.392Z,13.37
2017-09-06T09:41:31.893Z,17.50
2017-09-06T09:44:00.668Z,14.97
2017-09-06T09:46:29.162Z,17.93
2017-09-06T09:48:57.627Z,15.23
2017-09-06T09:51:26.187Z,26.17
2017-09-06T09:53:54.692Z,26.07
2017-09-06T09:56:23.186Z,18.50
2017-09-06T09:58:51.640Z,21.20
2017-09-06T10:01:20.867Z,17.70
2017-09-06T10:03:49.354Z,25.57
2017-09-06T10:06:17.818Z,25.10
2017-09-06T10:08:46.247Z,26.87
2017-09-06T10:11:14.788Z,22.20
2017-09-06T10:13:43.227Z,28.27
2017-09-06T10:16:11.684Z,34.80
2017-09-06T10:18:40.144Z,33.97
2017-09-06T10:21:08.730Z,26.10
2017-09-06T10:23:37.201Z,33.67
2017-09-06T10:26:05.688Z,21.87
2017-09-06T10:28:34.123Z,21.77
2017-09-06T10:31:02.654Z,28.87
2017-09-06T10:33:31.111Z,23.40
2017-09-06T10:35:59.581Z,22.47
2017-09-06T10:38:28.771Z,26.23
2017-09-06T10:40:57.285Z,30.10
2017-09-06T10:43:25.789Z,21.07
2017-09-06T10:45:54.471Z,26.07
2017-09-06T10:48:23.532Z,24.57
2017-09-06T10:50:52.042Z,29.90
2017-09-06T10:53:20.525Z,30.30
2017-09-06T10:55:48.999Z,18.43
2017-09-06T10:58:17.495Z,25.67
2017-09-06T11:00:45.953Z,23.90
2017-09-06T11:03:14.456Z,20.37
2017-09-06T11:05:42.934Z,19.90
2017-09-06T11:08:11.399Z,18.50
2017-09-06T11:10:39.903Z,18.37
2017-09-06T11:13:08.365Z,21.03
2017-09-06T11:15:36.868Z,20.43
2017-09-06T11:18:05.331Z,23.07
2017-09-06T11:20:33.835Z,19.60
2017-09-06T11:23:02.520Z,40.07
2017-09-06T11:25:30.992Z,18.73
2017-09-06T11:27:59.482Z,20.43
2017-09-06T11:30:27.959Z,31.30
2017-09-06T11:32:56.442Z,20.20
2017-09-06T11:35:24.871Z,34.67
2017-09-06T11:37:53.342Z,19.33
2017-09-06T11:40:21.780Z,22.53
2017-09-06T11:42:50.255Z,21.80
2017-09-06T11:45:18.695Z,20.37
2017-09-06T11:47:47.219Z,20.60
2017-09-06T11:50:15.648Z,23.20
2017-09-06T11:52:44.118Z,20.23
2017-09-06T11:55:12.668Z,17.60
2017-09-06T11:57:41.135Z,17.03
2017-09-06T12:00:09.572Z,13.97
2017-09-06T12:02:38.122Z,18.93
2017-09-06T12:05:06.591Z,17.63
2017-09-06T12:07:35.033Z,19.73
2017-09-06T12:10:03.461Z,15.60
2017-09-06T12:12:31.929Z,14.97
2017-09-06T12:15:00.365Z,15.63
2017-09-06T12:17:28.904Z,14.97
2017-09-06T12:19:57.379Z,18.77
2017-09-06T12:22:25.832Z,14.00
2017-09-06T12:24:54.344Z,15.00
2017-09-06T12:27:22.837Z,13.83
2017-09-06T12:29:51.312Z,13.83
2017-09-06T12:32:19.809Z,15.40
2017-09-06T12:34:48.272Z,12.23
2017-09-06T12:37:16.765Z,10.97
2017-09-06T12:39:45.208Z,11.40
2017-09-06T12:42:14.454Z,11.07
2017-09-06T12:44:42.915Z,12.67
2017-09-06T12:47:11.403Z,10.23
2017-09-06T12:49:39.894Z,17.00
2017-09-06T12:52:08.373Z,12.93
2017-09-06T12:54:36.821Z,10.00
2017-09-06T12:57:05.331Z,11.27
2017-09-06T12:59:33.760Z,10.63
2017-09-06T13:02:02.245Z,17.70
2017-09-06T13:04:30.776Z,11.23
2017-09-06T13:06:59.255Z,9.87
2017-09-06T13:09:27.703Z,10.10
2017-09-06T13:11:56.220Z,8.80
2017-09-06T13:14:24.676Z,13.73
2017-09-06T13:16:53.193Z,13.53
2017-09-06T13:19:21.678Z,9.60
2017-09-06T13:21:50.122Z,9.30
2017-09-06T13:24:18.581Z,7.70
2017-09-06T13:26:47.117Z,9.80
2017-09-06T13:29:15.607Z,8.33
2017-09-06T13:31:44.049Z,9.60
2017-09-06T13:34:12.505Z,7.07
2017-09-06T13:36:40.945Z,11.07
2017-09-06T13:39:09.387Z,7.23
2017-09-06T13:41:37.899Z,7.80
2017-09-06T13:44:06.399Z,7.03
2017-09-06T13:46:34.831Z,7.70
2017-09-06T13:49:03.353Z,7.00
2017-09-06T13:51:31.776Z,7.23
2017-09-06T13:54:00.215Z,6.43
2017-09-06T13:56:28.649Z,5.90
2017-09-06T13:58:57.100Z,6.27
2017-09-06T14:01:25.531Z,6.37
2017-09-06T14:03:54.041Z,7.77
2017-09-06T14:06:22.506Z,5.30
2017-09-06T14:08:51.009Z,5.93
2017-09-06T14:11:19.488Z,6.77
2017-09-06T14:13:47.927Z,9.30
2017-09-06T14:16:16.457Z,7.33
2017-09-06T14:18:44.918Z,6.47
2017-09-06T14:21:13.420Z,11.83
2017-09-06T14:23:41.897Z,6.40
2017-09-06T14:26:10.329Z,6.93
2017-09-06T14:28:38.864Z,5.93
2017-09-06T14:31:07.335Z,6.40
2017-09-06T14:33:35.780Z,6.77
2017-09-06T14:36:04.222Z,7.27
2017-09-06T14:38:32.697Z,7.27
2017-09-06T14:41:01.206Z,6.50
2017-09-06T14:43:29.643Z,6.23
2017-09-06T14:45:58.137Z,7.73
2017-09-06T14:48:26.619Z,6.30
2017-09-06T14:50:55.050Z,6.13
2017-09-06T14:53:23.503Z,5.37
2017-09-06T14:55:51.967Z,6.73
2017-09-06T14:58:20.445Z,5.90
2017-09-06T15:00:48.881Z,6.07
2017-09-06T15:03:18.226Z,5.93
2017-09-06T15:05:46.700Z,7.60
2017-09-06T15:08:15.188Z,9.10
2017-09-06T15:10:43.644Z,11.83
2017-09-06T15:13:12.263Z,15.20
2017-09-06T15:15:40.837Z,21.97
2017-09-06T15:18:09.326Z,13.70
2017-09-06T15:20:37.806Z,15.97
2017-09-06T15:23:06.285Z,14.57
2017-09-06T15:25:34.759Z,17.40
2017-09-06T15:28:03.211Z,22.83
2017-09-06T15:30:31.723Z,21.43
2017-09-06T15:33:00.212Z,21.20
2017-09-06T15:35:28.659Z,18.00
2017-09-06T15:37:57.169Z,21.93
2017-09-06T15:40:25.647Z,19.80
2017-09-06T15:42:54.131Z,16.43
2017-09-06T15:45:22.627Z,21.83
2017-09-06T15:47:51.060Z,20.57
2017-09-06T15:50:19.521Z,22.30
2017-09-06T15:52:47.955Z,24.27
2017-09-06T15:55:16.451Z,20.10
2017-09-06T15:57:44.924Z,21.00
2017-09-06T16:00:13.414Z,23.00
2017-09-06T16:02:41.866Z,21.60
2017-09-06T16:05:10.386Z,20.37
2017-09-06T16:07:38.825Z,19.30
2017-09-06T16:10:07.348Z,18.27
2017-09-06T16:12:35.817Z,18.93
2017-09-06T16:15:04.268Z,17.60
2017-09-06T16:17:32.697Z,24.63
2017-09-06T16:20:01.161Z,18.20
2017-09-06T16:22:29.606Z,15.33
2017-09-06T16:24:58.056Z,17.10
2017-09-06T16:27:26.511Z,14.03
2017-09-06T16:29:54.977Z,29.80
2017-09-06T16:32:23.464Z,13.77
2017-09-06T16:34:51.914Z,10.50
2017-09-06T16:37:21.119Z,11.00
2017-09-06T16:39:49.636Z,10.10
2017-09-06T16:42:18.197Z,10.30
2017-09-06T16:44:46.701Z,7.93
2017-09-06T16:47:15.139Z,9.93
2017-09-06T16:49:43.665Z,8.47
2017-09-06T16:52:12.150Z,8.77
2017-09-06T16:54:40.581Z,7.60
2017-09-06T16:57:09.114Z,11.83
2017-09-06T16:59:37.548Z,8.60
2017-09-06T17:02:06.012Z,11.73
2017-09-06T17:04:34.435Z,8.10
2017-09-06T17:07:03.440Z,9.60
2017-09-06T17:09:42.690Z,8.80
2017-09-06T17:12:11.160Z,13.90
2017-09-06T17:14:39.639Z,9.87
2017-09-06T17:17:08.096Z,6.67
2017-09-06T17:19:36.613Z,4.10
2017-09-06T17:22:05.055Z,2.53
2017-09-06T17:24:33.563Z,1.73
2017-09-06T17:27:02.049Z,6.87
2017-09-06T17:29:30.532Z,1.60
2017-09-06T17:31:59.021Z,4.10
2017-09-06T17:34:27.506Z,1.80
2017-09-06T17:36:56.284Z,1.63
2017-09-06T17:39:24.756Z,5.47
2017-09-06T17:41:53.247Z,2.17
2017-09-06T17:44:21.737Z,1.83
2017-09-06T17:46:50.228Z,1.60
2017-09-06T17:49:18.705Z,1.50
2017-09-06T17:51:47.165Z,3.40
2017-09-06T17:54:15.653Z,1.40
2017-09-06T17:56:44.151Z,0.87
2017-09-06T17:59:12.575Z,0.90
2017-09-06T18:01:41.039Z,0.70
2017-09-06T18:04:09.488Z,1.87
2017-09-06T18:06:37.977Z,1.77
2017-09-06T18:09:06.443Z,0.80
2017-09-06T18:11:34.935Z,1.07
2017-09-06T18:14:03.407Z,0.80
2017-09-06T18:16:31.835Z,0.87
2017-09-06T18:19:00.388Z,2.97
2017-09-06T18:21:28.860Z,2.60
2017-09-06T18:23:57.349Z,1.77
2017-09-06T18:26:25.779Z,1.10
2017-09-06T18:28:54.324Z,2.50
2017-09-06T18:31:22.758Z,3.07
2017-09-06T18:33:51.221Z,0.70
2017-09-06T18:36:20.373Z,3.73
2017-09-06T18:38:48.820Z,0.80
2017-09-06T18:41:18.021Z,0.60
2017-09-06T18:43:46.477Z,8.90
2017-09-06T18:46:15.028Z,0.60
2017-09-06T18:48:43.588Z,2.00
2017-09-06T18:51:12.089Z,0.73
2017-09-06T18:53:40.544Z,1.07
2017-09-06T18:56:09.032Z,0.50
2017-09-06T18:58:37.516Z,0.80
2017-09-06T19:01:05.943Z,1.63
2017-09-06T19:03:34.494Z,0.60
2017-09-06T19:06:02.922Z,0.70
2017-09-06T19:08:31.377Z,0.60
2017-09-06T19:10:59.849Z,1.00
2017-09-06T19:13:28.423Z,0.50
2017-09-06T19:15:56.902Z,0.70
2017-09-06T19:18:25.386Z,0.60
2017-09-06T19:20:53.826Z,2.10
2017-09-06T19:23:22.341Z,0.70
2017-09-06T19:25:50.826Z,0.60
2017-09-06T19:28:19.320Z,0.67
2017-09-06T19:30:47.777Z,0.80
2017-09-06T19:33:17.104Z,0.60
2017-09-06T19:35:45.664Z,0.50
2017-09-06T19:38:14.151Z,4.47
2017-09-06T19:40:42.632Z,7.30
2017-09-06T19:43:11.127Z,2.17
2017-09-06T19:45:39.575Z,6.63
2017-09-06T19:48:08.084Z,5.83
2017-09-06T19:50:36.522Z,3.13
2017-09-06T19:53:05.055Z,4.63
2017-09-06T19:55:33.523Z,1.20
2017-09-06T19:58:02.019Z,2.03
2017-09-06T20:00:30.506Z,1.47
2017-09-06T20:02:58.942Z,0.83
2017-09-06T20:05:28.276Z,2.80
2017-09-06T20:07:56.751Z,4.03
2017-09-06T20:10:25.235Z,5.50
2017-09-06T20:12:53.720Z,2.47
2017-09-06T20:15:22.208Z,1.13
2017-09-06T20:17:50.637Z,2.13
2017-09-06T20:20:19.173Z,1.67
2017-09-06T20:22:47.635Z,1.53
2017-09-06T20:25:16.127Z,1.97
2017-09-06T20:27:44.612Z,24.17
2017-09-06T20:30:13.087Z,8.03
2017-09-06T20:32:41.518Z,1.00
2017-09-06T20:35:09.984Z,1.83
2017-09-06T20:37:38.434Z,1.30
2017-09-06T20:40:06.930Z,5.60
2017-09-06T20:42:35.383Z,4.80
2017-09-06T20:45:04.600Z,3.37
2017-09-06T20:47:33.057Z,1.73
2017-09-06T20:50:01.475Z,1.97
2017-09-06T20:52:29.937Z,2.20
2017-09-06T20:54:58.364Z,1.20
2017-09-06T20:57:26.923Z,5.17
2017-09-06T20:59:55.342Z,8.43
2017-09-06T21:02:23.793Z,5.60
2017-09-06T21:04:52.211Z,2.90
2017-09-06T21:07:20.737Z,2.47
2017-09-06T21:09:49.180Z,11.20
2017-09-06T21:12:17.692Z,4.73
2017-09-06T21:14:46.189Z,8.53
2017-09-06T21:17:14.628Z,8.80
2017-09-06T21:19:43.074Z,8.27
2017-09-06T21:22:11.621Z,4.33
2017-09-06T21:24:40.058Z,7.23
2017-09-06T21:27:08.498Z,3.93
2017-09-06T21:29:36.948Z,9.10
2017-09-06T21:32:05.445Z,7.70
2017-09-06T21:34:33.928Z,7.10
2017-09-06T21:37:02.360Z,9.80
2017-09-06T21:39:30.808Z,13.30
2017-09-06T21:41:59.280Z,7.10
2017-09-06T21:44:27.765Z,14.07
2017-09-06T21:46:56.246Z,18.63
2017-09-06T21:49:24.720Z,9.83
2017-09-06T21:51:53.209Z,5.47
2017-09-06T21:54:21.657Z,16.97
2017-09-06T21:56:50.179Z,18.83
2017-09-06T21:59:18.651Z,15.73
2017-09-06T22:01:47.127Z,13.53
2017-09-06T22:04:15.573Z,7.33
2017-09-06T22:06:44.087Z,11.47
2017-09-06T22:09:12.540Z,19.30
2017-09-06T22:11:41.054Z,17.63
2017-09-06T22:14:09.513Z,6.70
2017-09-06T22:16:38.019Z,2.73
2017-09-06T22:19:06.513Z,12.80
2017-09-06T22:21:34.997Z,19.27
2017-09-06T22:24:03.464Z,16.87
2017-09-06T22:26:31.893Z,12.87
2017-09-06T22:29:00.352Z,18.37
2017-09-06T22:31:28.779Z,16.73
2017-09-06T22:33:57.704Z,22.60
2017-09-06T22:36:26.135Z,8.77
2017-09-06T22:38:54.577Z,8.87
2017-09-06T22:41:23.047Z,17.13
2017-09-06T22:43:51.532Z,9.30
2017-09-06T22:46:20.011Z,8.23
2017-09-06T22:48:48.491Z,14.87
2017-09-06T22:51:16.988Z,20.73
2017-09-06T22:53:45.429Z,9.47
2017-09-06T22:56:13.939Z,12.80
2017-09-06T22:58:42.431Z,20.27
2017-09-06T23:01:10.904Z,11.23
2017-09-06T23:03:39.392Z,32.67
2017-09-06T23:06:07.864Z,9.80
2017-09-06T23:08:36.302Z,16.10
2017-09-06T23:11:04.761Z,26.80
2017-09-06T23:13:33.212Z,20.17
2017-09-06T23:16:01.706Z,11.90
2017-09-06T23:18:30.149Z,15.80
2017-09-06T23:20:58.588Z,5.53
2017-09-06T23:23:27.036Z,24.53
2017-09-06T23:25:55.525Z,12.23
2017-09-06T23:28:23.951Z,22.63
2017-09-06T23:30:52.400Z,22.40
2017-09-06T23:33:20.877Z,6.50
2017-09-06T23:35:49.342Z,8.33
2017-09-06T23:38:17.828Z,10.30
2017-09-06T23:40:46.319Z,19.23
2017-09-06T23:43:14.760Z,23.60
2017-09-06T23:45:43.219Z,7.23
2017-09-06T23:48:11.760Z,31.83
2017-09-06T23:50:40.229Z,7.70
2017-09-06T23:53:08.724Z,18.43
2017-09-06T23:55:37.209Z,9.27
2017-09-06T23:58:05.689Z,13.00
